createdAt,value
2022-12-25T00:00:34.595Z,54.75
2022-12-25T00:01:34.582Z,56.19
2022-12-25T00:02:34.663Z,55.34
2022-12-25T00:03:34.667Z,53.88
2022-12-25T00:04:34.609Z,56.02
2022-12-25T00:05:34.523Z,54.49
2022-12-25T00:06:34.519Z,56.79
2022-12-25T00:07:34.505Z,56.61
2022-12-25T00:08:34.492Z,56.16
2022-12-25T00:09:34.676Z,56.65
2022-12-25T00:10:37.515Z,55.92
2022-12-25T00:11:35.492Z,51.94
2022-12-25T00:12:34.496Z,55.18
2022-12-25T00:13:34.485Z,53.39
2022-12-25T00:14:34.470Z,53.17
2022-12-25T00:15:34.487Z,53.89
2022-12-25T00:16:34.477Z,54.99
2022-12-25T00:17:34.461Z,55.48
2022-12-25T00:18:34.488Z,53.42
2022-12-25T00:19:41.462Z,52.94
2022-12-25T00:20:34.443Z,56.76
2022-12-25T00:21:34.445Z,54.90
2022-12-25T00:22:34.432Z,58.20
2022-12-25T00:23:34.423Z,56.56
2022-12-25T00:24:34.449Z,54.75
2022-12-25T00:25:34.409Z,55.20
2022-12-25T00:26:34.393Z,54.36
2022-12-25T00:27:34.451Z,52.79
2022-12-25T00:28:34.399Z,52.29
2022-12-25T00:29:34.397Z,56.71
2022-12-25T00:30:34.376Z,54.91
2022-12-25T00:31:34.493Z,55.09
2022-12-25T00:32:34.368Z,56.29
2022-12-25T00:33:34.397Z,52.33
2022-12-25T00:34:34.357Z,54.11
2022-12-25T00:35:34.349Z,55.57
2022-12-25T00:36:41.202Z,57.07
2022-12-25T00:37:35.359Z,56.89
2022-12-25T00:38:34.362Z,53.29
2022-12-25T00:39:34.391Z,54.88
2022-12-25T00:40:34.333Z,55.96
2022-12-25T00:41:34.358Z,52.94
2022-12-25T00:42:34.349Z,53.07
2022-12-25T00:43:34.321Z,52.91
2022-12-25T00:44:34.324Z,53.01
2022-12-25T00:45:34.413Z,53.08
2022-12-25T00:46:34.340Z,54.08
2022-12-25T00:47:34.306Z,50.81
2022-12-25T00:48:34.296Z,53.03
2022-12-25T00:49:34.275Z,56.58
2022-12-25T00:50:34.286Z,55.08
2022-12-25T00:51:34.281Z,51.54
2022-12-25T00:52:34.270Z,52.38
2022-12-25T00:53:34.276Z,53.58
2022-12-25T00:54:34.236Z,57.48
2022-12-25T00:55:34.240Z,56.02
2022-12-25T00:56:34.244Z,58.45
2022-12-25T00:57:34.226Z,52.84
2022-12-25T00:58:34.216Z,54.61
2022-12-25T00:59:34.227Z,54.42
2022-12-25T01:00:34.273Z,56.15
2022-12-25T01:01:34.273Z,53.08
2022-12-25T01:02:34.235Z,52.58
2022-12-25T01:03:34.236Z,53.89
2022-12-25T01:04:34.179Z,52.23
2022-12-25T01:05:34.182Z,53.40
2022-12-25T01:06:34.162Z,54.40
2022-12-25T01:07:34.160Z,55.78
2022-12-25T01:08:34.154Z,51.53
2022-12-25T01:09:34.172Z,55.86
2022-12-25T01:10:34.164Z,56.04
2022-12-25T01:11:34.155Z,54.91
2022-12-25T01:12:34.134Z,58.32
2022-12-25T01:13:34.122Z,54.11
2022-12-25T01:14:34.150Z,55.61
2022-12-25T01:15:34.123Z,53.24
2022-12-25T01:16:34.195Z,54.22
2022-12-25T01:17:34.140Z,57.54
2022-12-25T01:18:34.120Z,51.46
2022-12-25T01:19:34.116Z,51.81
2022-12-25T01:20:34.081Z,55.47
2022-12-25T01:21:34.088Z,53.23
2022-12-25T01:22:34.055Z,56.84
2022-12-25T01:23:34.056Z,54.67
2022-12-25T01:24:34.083Z,56.39
2022-12-25T01:25:34.059Z,56.80
2022-12-25T01:26:34.042Z,56.00
2022-12-25T01:27:34.050Z,54.30
2022-12-25T01:28:34.047Z,57.12
2022-12-25T01:29:34.050Z,53.62
2022-12-25T01:30:34.017Z,53.22
2022-12-25T01:31:34.087Z,54.82
2022-12-25T01:32:34.016Z,54.46
2022-12-25T01:33:33.999Z,55.78
2022-12-25T01:34:34.029Z,52.84
2022-12-25T01:35:34.020Z,51.60
2022-12-25T01:36:33.998Z,53.28
2022-12-25T01:37:34.017Z,55.11
2022-12-25T01:38:33.968Z,51.72
2022-12-25T01:39:34.034Z,54.25
2022-12-25T01:40:33.974Z,55.63
2022-12-25T01:41:33.967Z,54.78
2022-12-25T01:42:33.983Z,54.04
2022-12-25T01:43:33.935Z,53.28
2022-12-25T01:44:33.935Z,51.29
2022-12-25T01:45:34.024Z,54.06
2022-12-25T01:46:33.919Z,52.69
2022-12-25T01:47:33.921Z,52.75
2022-12-25T01:48:33.952Z,53.53
2022-12-25T01:49:33.927Z,54.01
2022-12-25T01:50:33.920Z,52.93
2022-12-25T01:51:33.921Z,52.11
2022-12-25T01:52:33.880Z,52.97
2022-12-25T01:53:33.874Z,54.33
2022-12-25T01:54:33.882Z,54.36
2022-12-25T01:55:33.865Z,54.71
2022-12-25T01:56:33.900Z,51.34
2022-12-25T01:57:33.866Z,51.75
2022-12-25T01:58:33.859Z,52.45
2022-12-25T01:59:33.866Z,52.69
2022-12-25T02:00:33.839Z,56.06
2022-12-25T02:01:33.900Z,52.76
2022-12-25T02:02:33.933Z,51.40
2022-12-25T02:03:33.831Z,51.60
2022-12-25T02:04:33.838Z,53.09
2022-12-25T02:05:33.827Z,51.66
2022-12-25T02:06:33.812Z,52.83
2022-12-25T02:07:33.816Z,52.17
2022-12-25T02:08:33.790Z,51.17
2022-12-25T02:09:33.795Z,51.53
2022-12-25T02:10:33.795Z,54.27
2022-12-25T02:11:33.779Z,56.03
2022-12-25T02:12:33.767Z,52.99
2022-12-25T02:13:33.789Z,54.79
2022-12-25T02:14:33.757Z,52.43
2022-12-25T02:15:33.782Z,53.56
2022-12-25T02:16:33.798Z,52.05
2022-12-25T02:17:34.740Z,55.03
2022-12-25T02:18:33.755Z,51.49
2022-12-25T02:19:33.748Z,53.65
2022-12-25T02:20:33.753Z,55.26
2022-12-25T02:21:33.726Z,54.06
2022-12-25T02:22:33.723Z,50.97
2022-12-25T02:23:33.735Z,52.29
2022-12-25T02:24:33.717Z,53.81
2022-12-25T02:25:33.695Z,54.51
2022-12-25T02:26:33.713Z,50.78
2022-12-25T02:27:33.704Z,51.14
2022-12-25T02:28:33.680Z,53.71
2022-12-25T02:29:33.669Z,50.73
2022-12-25T02:30:33.687Z,52.36
2022-12-25T02:31:33.687Z,51.81
2022-12-25T02:32:33.681Z,50.75
2022-12-25T02:33:33.656Z,55.24
2022-12-25T02:34:33.669Z,55.96
2022-12-25T02:35:33.651Z,51.69
2022-12-25T02:36:33.638Z,50.97
2022-12-25T02:37:33.636Z,54.43
2022-12-25T02:38:33.651Z,51.54
2022-12-25T02:39:33.617Z,50.47
2022-12-25T02:40:33.610Z,52.27
2022-12-25T02:41:33.611Z,50.77
2022-12-25T02:42:33.602Z,54.09
2022-12-25T02:43:33.591Z,54.99
2022-12-25T02:44:33.593Z,55.72
2022-12-25T02:45:33.650Z,53.45
2022-12-25T02:46:33.609Z,51.54
2022-12-25T02:47:33.587Z,50.99
2022-12-25T02:48:33.578Z,50.82
2022-12-25T02:49:33.562Z,50.95
2022-12-25T02:50:33.572Z,55.51
2022-12-25T02:51:33.578Z,59.42
2022-12-25T02:52:33.546Z,53.12
2022-12-25T02:53:33.546Z,52.52
2022-12-25T02:54:33.563Z,52.17
2022-12-25T02:55:33.532Z,54.09
2022-12-25T02:56:33.530Z,58.51
2022-12-25T02:57:33.525Z,53.66
2022-12-25T02:58:33.500Z,52.18
2022-12-25T02:59:33.516Z,53.14
2022-12-25T03:00:33.531Z,51.85
2022-12-25T03:01:33.629Z,51.96
2022-12-25T03:02:33.573Z,55.34
2022-12-25T03:03:33.548Z,52.80
2022-12-25T03:04:33.470Z,51.14
2022-12-25T03:05:33.495Z,51.14
2022-12-25T03:06:33.465Z,52.19
2022-12-25T03:07:33.457Z,54.68
2022-12-25T03:08:33.469Z,53.64
2022-12-25T03:09:33.490Z,51.16
2022-12-25T03:10:33.444Z,54.07
2022-12-25T03:11:33.448Z,55.50
2022-12-25T03:12:33.445Z,54.71
2022-12-25T03:13:33.418Z,54.45
2022-12-25T03:14:33.414Z,56.87
2022-12-25T03:15:33.409Z,54.63
2022-12-25T03:16:33.471Z,53.08
2022-12-25T03:17:33.421Z,55.12
2022-12-25T03:18:33.452Z,53.14
2022-12-25T03:19:33.393Z,53.78
2022-12-25T03:20:33.388Z,55.42
2022-12-25T03:21:33.381Z,54.91
2022-12-25T03:22:33.380Z,51.75
2022-12-25T03:23:33.374Z,50.53
2022-12-25T03:24:33.390Z,50.79
2022-12-25T03:25:33.360Z,52.62
2022-12-25T03:26:33.352Z,53.91
2022-12-25T03:27:33.357Z,52.24
2022-12-25T03:28:33.348Z,54.35
2022-12-25T03:29:33.340Z,52.25
2022-12-25T03:30:33.385Z,53.78
2022-12-25T03:31:33.322Z,52.48
2022-12-25T03:32:33.340Z,52.55
2022-12-25T03:33:47.159Z,52.36
2022-12-25T03:34:34.336Z,56.04
2022-12-25T03:35:33.316Z,56.81
2022-12-25T03:36:33.296Z,53.69
2022-12-25T03:37:33.316Z,54.56
2022-12-25T03:38:33.284Z,54.54
2022-12-25T03:39:33.279Z,54.49
2022-12-25T03:40:33.271Z,52.90
2022-12-25T03:41:33.284Z,55.02
2022-12-25T03:42:33.260Z,55.66
2022-12-25T03:43:33.248Z,54.77
2022-12-25T03:44:33.255Z,54.58
2022-12-25T03:45:33.238Z,57.64
2022-12-25T03:46:33.303Z,56.06
2022-12-25T03:47:33.229Z,54.93
2022-12-25T03:48:33.242Z,54.73
2022-12-25T03:49:33.213Z,54.38
2022-12-25T03:50:33.211Z,52.43
2022-12-25T03:51:33.217Z,54.95
2022-12-25T03:52:33.220Z,57.59
2022-12-25T03:53:33.208Z,55.14
2022-12-25T03:54:33.185Z,55.72
2022-12-25T03:55:33.199Z,51.48
2022-12-25T03:56:33.178Z,55.93
2022-12-25T03:57:33.169Z,54.79
2022-12-25T03:58:33.185Z,53.65
2022-12-25T03:59:33.159Z,56.61
2022-12-25T04:00:33.149Z,55.41
2022-12-25T04:01:33.221Z,52.96
2022-12-25T04:02:33.234Z,51.44
2022-12-25T04:03:33.266Z,52.30
2022-12-25T04:04:33.137Z,53.95
2022-12-25T04:05:33.127Z,52.34
2022-12-25T04:06:33.118Z,53.28
2022-12-25T04:07:33.114Z,54.98
2022-12-25T04:08:33.144Z,55.79
2022-12-25T04:09:33.108Z,57.03
2022-12-25T04:10:33.094Z,56.33
2022-12-25T04:11:33.089Z,54.73
2022-12-25T04:12:33.107Z,55.32
2022-12-25T04:13:33.104Z,55.85
2022-12-25T04:14:33.074Z,52.32
2022-12-25T04:15:33.118Z,53.30
2022-12-25T04:16:33.089Z,55.15
2022-12-25T04:17:33.061Z,56.29
2022-12-25T04:18:33.054Z,54.63
2022-12-25T04:19:33.073Z,55.12
2022-12-25T04:20:33.042Z,56.64
2022-12-25T04:21:33.053Z,57.04
2022-12-25T04:22:33.058Z,55.07
2022-12-25T04:23:33.059Z,55.13
2022-12-25T04:24:33.037Z,55.65
2022-12-25T04:25:33.018Z,56.64
2022-12-25T04:26:33.047Z,56.48
2022-12-25T04:27:33.009Z,55.54
2022-12-25T04:28:33.009Z,53.16
2022-12-25T04:29:33.009Z,54.56
2022-12-25T04:30:33.004Z,54.98
2022-12-25T04:31:33.009Z,53.05
2022-12-25T04:32:33.008Z,54.85
2022-12-25T04:33:32.995Z,51.76
2022-12-25T04:34:33.013Z,53.04
2022-12-25T04:35:32.965Z,55.34
2022-12-25T04:36:32.993Z,57.91
2022-12-25T04:37:32.992Z,54.33
2022-12-25T04:38:32.961Z,51.24
2022-12-25T04:39:32.956Z,56.08
2022-12-25T04:40:32.935Z,54.65
2022-12-25T04:41:32.947Z,55.27
2022-12-25T04:42:32.938Z,57.31
2022-12-25T04:43:32.947Z,56.32
2022-12-25T04:44:32.911Z,55.55
2022-12-25T04:45:32.920Z,52.39
2022-12-25T04:46:32.918Z,52.39
2022-12-25T04:47:32.896Z,54.68
2022-12-25T04:48:32.914Z,52.98
2022-12-25T04:49:32.904Z,56.02
2022-12-25T04:50:32.878Z,55.55
2022-12-25T04:51:32.876Z,57.20
2022-12-25T04:52:32.877Z,54.78
2022-12-25T04:53:32.863Z,56.44
2022-12-25T04:54:32.847Z,54.08
2022-12-25T04:55:32.838Z,57.16
2022-12-25T04:56:32.829Z,57.51
2022-12-25T04:57:32.821Z,54.61
2022-12-25T04:58:32.852Z,55.95
2022-12-25T04:59:32.815Z,54.42
2022-12-25T05:00:32.802Z,53.34
2022-12-25T05:01:32.948Z,57.86
2022-12-25T05:02:32.944Z,54.54
2022-12-25T05:03:32.861Z,56.11
2022-12-25T05:04:32.806Z,51.82
2022-12-25T05:05:32.789Z,53.80
2022-12-25T05:06:32.775Z,57.18
2022-12-25T05:07:32.783Z,55.48
2022-12-25T05:08:32.764Z,58.90
2022-12-25T05:09:32.794Z,55.44
2022-12-25T05:10:32.752Z,55.62
2022-12-25T05:11:32.751Z,55.45
2022-12-25T05:12:32.760Z,53.98
2022-12-25T05:13:32.748Z,55.63
2022-12-25T05:14:32.768Z,53.69
2022-12-25T05:15:32.738Z,52.19
2022-12-25T05:16:32.784Z,54.95
2022-12-25T05:17:32.721Z,56.26
2022-12-25T05:18:32.721Z,55.08
2022-12-25T05:19:32.715Z,54.67
2022-12-25T05:20:39.575Z,57.35
2022-12-25T05:21:33.712Z,57.65
2022-12-25T05:22:32.706Z,54.74
2022-12-25T05:23:32.698Z,56.47
2022-12-25T05:24:32.688Z,57.86
2022-12-25T05:25:32.712Z,56.48
2022-12-25T05:26:32.675Z,55.77
2022-12-25T05:27:32.669Z,59.27
2022-12-25T05:28:32.666Z,54.36
2022-12-25T05:29:32.673Z,54.56
2022-12-25T05:30:32.652Z,58.03
2022-12-25T05:31:32.783Z,57.05
2022-12-25T05:32:32.643Z,55.69
2022-12-25T05:33:32.638Z,54.12
2022-12-25T05:34:32.633Z,58.13
2022-12-25T05:35:32.625Z,56.56
2022-12-25T05:36:32.625Z,55.96
2022-12-25T05:37:32.666Z,53.95
2022-12-25T05:38:32.615Z,58.98
2022-12-25T05:39:32.627Z,56.69
2022-12-25T05:40:32.598Z,54.99
2022-12-25T05:41:34.841Z,57.71
2022-12-25T05:42:32.602Z,56.27
2022-12-25T05:43:32.639Z,52.29
2022-12-25T05:44:32.593Z,59.31
2022-12-25T05:45:32.575Z,55.83
2022-12-25T05:46:32.607Z,55.03
2022-12-25T05:47:32.574Z,55.50
2022-12-25T05:48:32.566Z,56.88
2022-12-25T05:49:32.555Z,53.09
2022-12-25T05:50:32.564Z,56.18
2022-12-25T05:51:32.572Z,57.09
2022-12-25T05:52:32.565Z,58.60
2022-12-25T05:53:32.545Z,53.47
2022-12-25T05:54:32.527Z,56.51
2022-12-25T05:55:32.526Z,56.09
2022-12-25T05:56:32.534Z,57.42
2022-12-25T05:57:32.522Z,56.14
2022-12-25T05:58:32.523Z,56.68
2022-12-25T05:59:32.517Z,55.29
2022-12-25T06:00:32.500Z,53.92
2022-12-25T06:01:32.605Z,54.67
2022-12-25T06:02:32.686Z,55.73
2022-12-25T06:03:32.506Z,55.58
2022-12-25T06:04:32.498Z,56.48
2022-12-25T06:05:32.474Z,56.21
2022-12-25T06:06:32.471Z,54.08
2022-12-25T06:07:32.532Z,56.53
2022-12-25T06:08:32.454Z,56.34
2022-12-25T06:09:32.471Z,53.27
2022-12-25T06:10:32.439Z,53.18
2022-12-25T06:11:32.436Z,56.83
2022-12-25T06:12:32.443Z,56.22
2022-12-25T06:13:32.427Z,57.49
2022-12-25T06:14:32.415Z,61.16
2022-12-25T06:15:32.454Z,58.58
2022-12-25T06:16:37.855Z,59.66
2022-12-25T06:17:32.432Z,58.27
2022-12-25T06:18:32.414Z,56.57
2022-12-25T06:19:32.398Z,57.53
2022-12-25T06:20:39.408Z,56.08
2022-12-25T06:21:32.388Z,56.83
2022-12-25T06:22:32.377Z,57.01
2022-12-25T06:23:32.482Z,52.69
2022-12-25T06:24:32.416Z,54.99
2022-12-25T06:25:32.357Z,57.16
2022-12-25T06:26:32.353Z,57.36
2022-12-25T06:27:32.367Z,57.95
2022-12-25T06:28:32.339Z,56.76
2022-12-25T06:29:32.344Z,57.96
2022-12-25T06:30:32.343Z,56.50
2022-12-25T06:31:32.347Z,55.31
2022-12-25T06:32:32.311Z,56.77
2022-12-25T06:33:32.309Z,59.75
2022-12-25T06:34:32.299Z,56.40
2022-12-25T06:35:32.332Z,56.98
2022-12-25T06:36:32.317Z,53.28
2022-12-25T06:37:32.287Z,56.91
2022-12-25T06:38:32.276Z,58.16
2022-12-25T06:39:32.293Z,58.51
2022-12-25T06:40:32.272Z,57.68
2022-12-25T06:41:32.273Z,55.67
2022-12-25T06:42:32.249Z,58.05
2022-12-25T06:43:32.244Z,60.25
2022-12-25T06:44:32.262Z,56.84
2022-12-25T06:45:32.267Z,55.92
2022-12-25T06:46:32.270Z,58.38
2022-12-25T06:47:32.229Z,59.49
2022-12-25T06:48:32.231Z,56.38
2022-12-25T06:49:32.245Z,56.82
2022-12-25T06:50:32.224Z,56.01
2022-12-25T06:51:32.255Z,55.59
2022-12-25T06:52:32.201Z,58.43
2022-12-25T06:53:38.828Z,57.09
2022-12-25T06:54:33.196Z,58.23
2022-12-25T06:55:32.184Z,56.30
2022-12-25T06:56:32.197Z,58.38
2022-12-25T06:57:32.186Z,55.30
2022-12-25T06:58:32.172Z,57.62
2022-12-25T06:59:32.161Z,54.77
2022-12-25T07:00:32.158Z,58.10
2022-12-25T07:01:32.282Z,59.97
2022-12-25T07:02:32.225Z,54.86
2022-12-25T07:03:32.183Z,56.54
2022-12-25T07:04:32.253Z,58.01
2022-12-25T07:05:32.142Z,57.66
2022-12-25T07:06:32.130Z,57.76
2022-12-25T07:07:32.119Z,58.82
2022-12-25T07:08:32.119Z,60.78
2022-12-25T07:09:32.149Z,56.78
2022-12-25T07:10:32.123Z,57.24
2022-12-25T07:11:32.114Z,57.60
2022-12-25T07:12:32.115Z,59.99
2022-12-25T07:13:32.085Z,60.87
2022-12-25T07:14:32.099Z,57.08
2022-12-25T07:15:32.099Z,56.00
2022-12-25T07:16:32.185Z,58.31
2022-12-25T07:17:32.066Z,57.83
2022-12-25T07:18:32.108Z,58.61
2022-12-25T07:19:32.085Z,59.27
2022-12-25T07:20:32.044Z,57.74
2022-12-25T07:21:32.042Z,61.64
2022-12-25T07:22:32.031Z,60.52
2022-12-25T07:23:32.033Z,58.96
2022-12-25T07:24:32.084Z,60.18
2022-12-25T07:25:37.116Z,60.71
2022-12-25T07:26:32.024Z,59.36
2022-12-25T07:27:32.003Z,60.14
2022-12-25T07:28:31.998Z,56.42
2022-12-25T07:29:31.997Z,59.37
2022-12-25T07:30:32.027Z,60.16
2022-12-25T07:31:32.103Z,60.28
2022-12-25T07:32:32.016Z,60.79
2022-12-25T07:33:32.018Z,58.37
2022-12-25T07:34:32.003Z,54.39
2022-12-25T07:35:31.957Z,54.94
2022-12-25T07:36:31.954Z,59.63
2022-12-25T07:37:31.950Z,60.36
2022-12-25T07:38:31.937Z,61.21
2022-12-25T07:39:31.962Z,59.62
2022-12-25T07:40:31.929Z,61.56
2022-12-25T07:41:31.925Z,61.02
2022-12-25T07:42:31.919Z,61.07
2022-12-25T07:43:31.919Z,58.07
2022-12-25T07:44:31.934Z,59.67
2022-12-25T07:45:31.998Z,62.16
2022-12-25T07:46:31.907Z,60.79
2022-12-25T07:47:31.886Z,56.86
2022-12-25T07:48:31.882Z,61.00
2022-12-25T07:49:31.893Z,60.70
2022-12-25T07:50:31.883Z,60.12
2022-12-25T07:51:31.873Z,60.19
2022-12-25T07:52:34.285Z,59.40
2022-12-25T07:53:31.893Z,59.33
2022-12-25T07:54:31.849Z,58.86
2022-12-25T07:55:31.852Z,61.54
2022-12-25T07:56:31.844Z,57.89
2022-12-25T07:57:31.834Z,58.39
2022-12-25T07:58:31.854Z,57.24
2022-12-25T07:59:31.865Z,58.23
2022-12-25T08:00:31.811Z,58.41
2022-12-25T08:01:32.006Z,59.97
2022-12-25T08:02:32.184Z,60.06
2022-12-25T08:03:32.094Z,59.71
2022-12-25T08:04:31.817Z,58.87
2022-12-25T08:05:31.827Z,60.86
2022-12-25T08:06:31.791Z,59.62
2022-12-25T08:07:31.766Z,60.88
2022-12-25T08:08:31.784Z,61.83
2022-12-25T08:09:31.794Z,60.08
2022-12-25T08:10:31.747Z,60.53
2022-12-25T08:11:31.787Z,62.70
2022-12-25T08:12:31.744Z,62.01
2022-12-25T08:13:31.771Z,61.81
2022-12-25T08:14:31.732Z,62.15
2022-12-25T08:15:31.719Z,62.78
2022-12-25T08:16:31.727Z,60.80
2022-12-25T08:17:31.713Z,61.69
2022-12-25T08:18:31.721Z,59.72
2022-12-25T08:19:31.711Z,60.32
2022-12-25T08:20:31.696Z,61.15
2022-12-25T08:21:31.696Z,62.65
2022-12-25T08:22:31.704Z,61.68
2022-12-25T08:23:31.678Z,62.78
2022-12-25T08:24:31.700Z,59.35
2022-12-25T08:25:31.667Z,63.41
2022-12-25T08:26:31.666Z,63.01
2022-12-25T08:27:31.656Z,61.85
2022-12-25T08:28:31.678Z,61.49
2022-12-25T08:29:31.651Z,61.16
2022-12-25T08:30:31.745Z,59.33
2022-12-25T08:31:31.759Z,61.86
2022-12-25T08:32:31.668Z,61.38
2022-12-25T08:33:31.613Z,60.49
2022-12-25T08:34:31.614Z,61.74
2022-12-25T08:35:31.619Z,62.55
2022-12-25T08:36:31.618Z,62.54
2022-12-25T08:37:31.602Z,62.04
2022-12-25T08:38:31.640Z,58.37
2022-12-25T08:39:31.585Z,62.17
2022-12-25T08:40:31.583Z,62.80
2022-12-25T08:41:31.577Z,61.24
2022-12-25T08:42:31.588Z,59.41
2022-12-25T08:43:31.558Z,62.48
2022-12-25T08:44:31.576Z,61.88
2022-12-25T08:45:35.142Z,61.16
2022-12-25T08:46:31.667Z,62.32
2022-12-25T08:47:31.533Z,60.58
2022-12-25T08:48:31.540Z,60.85
2022-12-25T08:49:31.521Z,61.00
2022-12-25T08:50:31.552Z,60.46
2022-12-25T08:51:31.520Z,59.90
2022-12-25T08:52:31.524Z,59.82
2022-12-25T08:53:31.506Z,60.93
2022-12-25T08:54:31.494Z,59.18
2022-12-25T08:55:31.481Z,61.84
2022-12-25T08:56:31.534Z,60.82
2022-12-25T08:57:31.478Z,60.78
2022-12-25T08:58:31.507Z,60.33
2022-12-25T08:59:31.490Z,59.79
2022-12-25T09:00:31.470Z,63.16
2022-12-25T09:01:31.593Z,62.89
2022-12-25T09:02:31.606Z,59.65
2022-12-25T09:03:31.515Z,61.22
2022-12-25T09:04:31.476Z,59.83
2022-12-25T09:05:31.436Z,62.07
2022-12-25T09:06:31.415Z,61.70
2022-12-25T09:07:31.436Z,61.83
2022-12-25T09:08:31.397Z,60.50
2022-12-25T09:09:31.402Z,61.85
2022-12-25T09:10:31.431Z,63.98
2022-12-25T09:11:31.409Z,61.90
2022-12-25T09:12:31.397Z,60.14
2022-12-25T09:13:31.402Z,62.86
2022-12-25T09:14:31.432Z,61.82
2022-12-25T09:15:31.390Z,62.66
2022-12-25T09:16:31.414Z,62.01
2022-12-25T09:17:31.351Z,62.76
2022-12-25T09:18:31.372Z,63.50
2022-12-25T09:19:31.352Z,65.40
2022-12-25T09:20:31.364Z,65.07
2022-12-25T09:21:31.352Z,63.69
2022-12-25T09:22:31.322Z,62.41
2022-12-25T09:23:31.312Z,61.94
2022-12-25T09:24:31.320Z,63.03
2022-12-25T09:25:31.314Z,63.59
2022-12-25T09:26:31.324Z,62.04
2022-12-25T09:27:31.304Z,65.21
2022-12-25T09:28:31.339Z,63.32
2022-12-25T09:29:31.290Z,63.11
2022-12-25T09:30:31.353Z,63.25
2022-12-25T09:31:31.391Z,63.47
2022-12-25T09:32:31.408Z,63.30
2022-12-25T09:33:31.318Z,63.11
2022-12-25T09:34:31.273Z,63.25
2022-12-25T09:35:31.261Z,63.73
2022-12-25T09:36:31.258Z,63.35
2022-12-25T09:37:31.285Z,63.05
2022-12-25T09:38:31.271Z,63.58
2022-12-25T09:39:31.255Z,62.37
2022-12-25T09:40:31.235Z,61.91
2022-12-25T09:41:31.235Z,61.37
2022-12-25T09:42:31.226Z,63.18
2022-12-25T09:43:31.208Z,62.55
2022-12-25T09:44:31.224Z,63.22
2022-12-25T09:45:31.195Z,64.22
2022-12-25T09:46:36.905Z,63.67
2022-12-25T09:47:32.195Z,63.70
2022-12-25T09:48:31.175Z,63.21
2022-12-25T09:49:31.201Z,63.72
2022-12-25T09:50:31.175Z,63.20
2022-12-25T09:51:31.179Z,63.91
2022-12-25T09:52:31.152Z,64.16
2022-12-25T09:53:31.194Z,63.55
2022-12-25T09:54:31.143Z,64.98
2022-12-25T09:55:31.148Z,65.55
2022-12-25T09:56:31.167Z,63.38
2022-12-25T09:57:31.138Z,63.86
2022-12-25T09:58:31.128Z,64.07
2022-12-25T09:59:31.145Z,65.50
2022-12-25T10:00:31.123Z,63.98
2022-12-25T10:01:31.182Z,62.79
2022-12-25T10:02:31.319Z,61.92
2022-12-25T10:03:31.185Z,63.23
2022-12-25T10:04:33.692Z,63.84
2022-12-25T10:05:32.100Z,62.78
2022-12-25T10:06:31.089Z,62.92
2022-12-25T10:07:31.084Z,61.23
2022-12-25T10:08:31.107Z,62.50
2022-12-25T10:09:31.079Z,61.70
2022-12-25T10:10:31.098Z,62.12
2022-12-25T10:11:31.074Z,63.58
2022-12-25T10:12:31.038Z,64.70
2022-12-25T10:13:31.069Z,62.92
2022-12-25T10:14:31.042Z,60.84
2022-12-25T10:15:31.104Z,62.77
2022-12-25T10:16:31.069Z,63.32
2022-12-25T10:17:31.021Z,61.56
2022-12-25T10:18:31.026Z,63.26
2022-12-25T10:19:31.026Z,62.93
2022-12-25T10:20:31.050Z,62.33
2022-12-25T10:21:31.001Z,63.18
2022-12-25T10:22:31.009Z,64.29
2022-12-25T10:23:30.997Z,64.38
2022-12-25T10:24:30.964Z,62.58
2022-12-25T10:25:30.980Z,62.27
2022-12-25T10:26:31.003Z,62.67
2022-12-25T10:27:31.012Z,62.89
2022-12-25T10:28:30.977Z,63.52
2022-12-25T10:29:30.955Z,63.45
2022-12-25T10:30:30.941Z,64.84
2022-12-25T10:31:30.998Z,63.38
2022-12-25T10:32:30.971Z,62.71
2022-12-25T10:33:30.936Z,62.15
2022-12-25T10:34:30.946Z,63.12
2022-12-25T10:35:30.923Z,64.10
2022-12-25T10:36:30.927Z,63.81
2022-12-25T10:37:30.915Z,63.26
2022-12-25T10:38:30.929Z,64.12
2022-12-25T10:39:30.899Z,64.00
2022-12-25T10:40:30.899Z,63.19
2022-12-25T10:41:30.888Z,62.74
2022-12-25T10:42:30.889Z,61.43
2022-12-25T10:43:30.897Z,61.77
2022-12-25T10:44:30.955Z,64.34
2022-12-25T10:45:30.932Z,63.21
2022-12-25T10:46:30.948Z,62.03
2022-12-25T10:47:30.869Z,63.11
2022-12-25T10:48:30.861Z,62.51
2022-12-25T10:49:30.867Z,62.74
2022-12-25T10:50:30.858Z,62.82
2022-12-25T10:51:30.818Z,62.56
2022-12-25T10:52:30.836Z,62.71
2022-12-25T10:53:30.823Z,62.83
2022-12-25T10:54:30.831Z,62.77
2022-12-25T10:55:30.795Z,61.88
2022-12-25T10:56:30.831Z,62.45
2022-12-25T10:57:30.811Z,62.81
2022-12-25T10:58:30.787Z,63.17
2022-12-25T10:59:30.813Z,63.64
2022-12-25T11:00:30.829Z,64.13
2022-12-25T11:01:30.859Z,64.15
2022-12-25T11:02:30.974Z,61.98
2022-12-25T11:03:30.957Z,62.60
2022-12-25T11:04:30.797Z,63.17
2022-12-25T11:05:30.773Z,61.26
2022-12-25T11:06:30.760Z,62.59
2022-12-25T11:07:30.745Z,62.55
2022-12-25T11:08:30.741Z,61.68
2022-12-25T11:09:30.742Z,61.18
2022-12-25T11:10:30.732Z,62.93
2022-12-25T11:11:30.751Z,62.04
2022-12-25T11:12:30.747Z,64.63
2022-12-25T11:13:30.754Z,63.08
2022-12-25T11:14:30.759Z,64.29
2022-12-25T11:15:30.704Z,63.25
2022-12-25T11:16:30.820Z,63.66
2022-12-25T11:17:30.705Z,63.36
2022-12-25T11:18:30.691Z,61.79
2022-12-25T11:19:30.694Z,63.92
2022-12-25T11:20:30.666Z,63.06
2022-12-25T11:21:30.678Z,63.65
2022-12-25T11:22:30.696Z,63.37
2022-12-25T11:23:30.661Z,64.84
2022-12-25T11:24:30.644Z,63.64
2022-12-25T11:25:30.648Z,64.06
2022-12-25T11:26:30.650Z,63.91
2022-12-25T11:27:30.660Z,64.03
2022-12-25T11:28:30.632Z,64.43
2022-12-25T11:29:30.608Z,63.11
2022-12-25T11:30:30.609Z,63.74
2022-12-25T11:31:30.649Z,64.29
2022-12-25T11:32:30.650Z,64.72
2022-12-25T11:33:30.613Z,64.15
2022-12-25T11:34:30.612Z,62.98
2022-12-25T11:35:30.594Z,63.43
2022-12-25T11:36:30.584Z,63.25
2022-12-25T11:37:30.587Z,62.54
2022-12-25T11:38:30.584Z,63.40
2022-12-25T11:39:30.596Z,64.05
2022-12-25T11:40:30.604Z,63.46
2022-12-25T11:41:30.554Z,63.82
2022-12-25T11:42:30.568Z,62.31
2022-12-25T11:43:30.537Z,63.00
2022-12-25T11:44:30.539Z,62.29
2022-12-25T11:45:30.543Z,63.44
2022-12-25T11:46:30.579Z,62.23
2022-12-25T11:47:30.540Z,62.94
2022-12-25T11:48:30.512Z,62.73
2022-12-25T11:49:30.506Z,62.50
2022-12-25T11:50:30.500Z,62.73
2022-12-25T11:51:30.505Z,63.11
2022-12-25T11:52:30.489Z,63.47
2022-12-25T11:53:30.540Z,63.06
2022-12-25T11:54:30.479Z,62.50
2022-12-25T11:55:30.489Z,62.90
2022-12-25T11:56:30.458Z,62.63
2022-12-25T11:57:30.465Z,62.98
2022-12-25T11:58:30.449Z,62.58
2022-12-25T11:59:30.482Z,62.38
2022-12-25T12:00:30.462Z,63.93
2022-12-25T12:01:30.570Z,61.95
2022-12-25T12:02:30.545Z,64.10
2022-12-25T12:03:30.566Z,63.75
2022-12-25T12:04:33.867Z,63.49
2022-12-25T12:05:30.455Z,64.18
2022-12-25T12:06:30.444Z,61.93
2022-12-25T12:07:30.417Z,63.58
2022-12-25T12:08:30.400Z,63.76
2022-12-25T12:09:30.410Z,63.00
2022-12-25T12:10:30.402Z,64.44
2022-12-25T12:11:30.417Z,65.15
2022-12-25T12:12:30.380Z,64.45
2022-12-25T12:13:30.368Z,63.51
2022-12-25T12:14:30.375Z,64.38
2022-12-25T12:15:30.399Z,63.16
2022-12-25T12:16:30.382Z,64.10
2022-12-25T12:17:30.344Z,65.08
2022-12-25T12:18:30.371Z,62.59
2022-12-25T12:19:30.340Z,63.52
2022-12-25T12:20:30.326Z,64.55
2022-12-25T12:21:37.358Z,62.19
2022-12-25T12:22:30.311Z,63.74
2022-12-25T12:23:30.319Z,64.94
2022-12-25T12:24:30.353Z,63.72
2022-12-25T12:25:30.317Z,63.92
2022-12-25T12:26:30.325Z,63.02
2022-12-25T12:27:30.321Z,61.74
2022-12-25T12:28:30.335Z,61.55
2022-12-25T12:29:30.274Z,62.73
2022-12-25T12:30:30.294Z,63.36
2022-12-25T12:31:30.367Z,63.97
2022-12-25T12:32:30.260Z,62.90
2022-12-25T12:33:30.290Z,62.25
2022-12-25T12:34:30.295Z,63.46
2022-12-25T12:35:30.241Z,62.67
2022-12-25T12:36:36.267Z,62.03
2022-12-25T12:37:31.236Z,64.14
2022-12-25T12:38:30.267Z,63.07
2022-12-25T12:39:30.222Z,63.81
2022-12-25T12:40:30.202Z,63.36
2022-12-25T12:41:30.216Z,62.42
2022-12-25T12:42:30.191Z,63.81
2022-12-25T12:43:30.236Z,63.94
2022-12-25T12:44:30.176Z,63.46
2022-12-25T12:45:30.240Z,63.95
2022-12-25T12:46:31.328Z,63.39
2022-12-25T12:47:30.204Z,63.20
2022-12-25T12:48:30.233Z,62.63
2022-12-25T12:49:30.195Z,62.43
2022-12-25T12:50:30.165Z,63.86
2022-12-25T12:51:30.149Z,63.31
2022-12-25T12:52:30.195Z,63.66